METAR Data
IDs: Format: Raw Decoded Include TAF

Data at: 2349 UTC 25 Oct 2021

KCXO 252253Z 11003KT 10SM CLR 29/23 A2992 RMK AO2 SLP128 T02890228
KCXO 252153Z 15003KT 10SM CLR 29/23 A2992 RMK AO2 SLP127 T02940228
KCXO 252053Z VRB04KT 10SM CLR 30/23 A2992 RMK AO2 SLP129 T03000228 56018
KCXO 251953Z 10003KT 10SM SCT026 28/23 A2994 RMK AO2 SLP134 T02830228
KCXO 251925Z 00000KT 10SM BKN026 29/23 A2994 RMK AO2 T02890228
KCXO 251853Z 35003KT 10SM FEW023 28/23 A2995 RMK AO2 SLP139 T02830228
KCXO 251845Z 33004KT 10SM SCT023 28/23 A2996 RMK AO2 T02830228
KCXO 251753Z 00000KT 10SM OVC023 28/23 A2998 RMK AO2 SLP149 T02780228 10283 20222 58005
KCXO 251653Z 18003KT 10SM BKN017 28/23 A2999 RMK AO2 SLP152 T02780228
KCXO 251648Z 00000KT 10SM SCT017 27/23 A2999 RMK AO2
KCXO 251609Z 00000KT 10SM OVC015 26/22 A2999 RMK AO2 T02560222
KCXO 251553Z 22005KT 10SM OVC014 26/22 A2999 RMK AO2 SLP153 T02560222
KCXO 251453Z 27005KT 10SM OVC012 24/22 A3000 RMK AO2 SLP156 T02440222 51018
KCXO 251353Z 00000KT 10SM OVC013 23/23 A2999 RMK AO2 SLP151 T02330233
KCXO 251329Z 00000KT 10SM OVC014 23/23 A2998 RMK AO2 T02280228
KCXO 251253Z 00000KT 9SM OVC017 22/22 A2996 RMK AO2 SLP142 T02220222
KCXO 251153Z 00000KT 10SM OVC015 22/22 A2995 RMK AO2 SLP137 T02220222 10228 20206 53011
KCXO 251053Z 00000KT 10SM OVC016 22/21 A2993 RMK AO2 SLP131 T02170211
KCXO 251033Z AUTO 00000KT 10SM OVC016 21/21 A2992 RMK AO2 T02110211
KCXO 250953Z AUTO 00000KT 7SM OVC013 22/22 A2991 RMK AO2 SLP125 T02170217
KCXO 250901Z AUTO 00000KT 8SM FEW008 BKN013 21/21 A2991 RMK AO2 T02110211
KCXO 250853Z AUTO 00000KT 9SM BKN013 21/21 A2991 RMK AO2 SLP125 T02110211 50001
KCXO 250842Z AUTO 00000KT 10SM FEW007 BKN013 22/22 A2992 RMK AO2 T02220222
KCXO 250753Z AUTO 00000KT 5SM BR BKN011 21/21 A2992 RMK AO2 SLP127 T02110211
KCXO 250748Z AUTO 00000KT 3SM BR BKN009 21/21 A2992 RMK AO2 CIG 009V012
KCXO 250736Z AUTO 00000KT 1SM BR VV009 21/21 A2992 RMK AO2 T02060206
KCXO 250733Z AUTO 00000KT 2 1/2SM BR SCT009 21/21 A2992 RMK AO2 T02110211
KCXO 250711Z AUTO 00000KT 9SM SCT011 22/22 A2992 RMK AO2 T02170217
KCXO 250653Z AUTO 00000KT 10SM OVC011 23/22 A2992 RMK AO2 SLP127 T02280222
KCXO 250635Z AUTO 00000KT 10SM OVC010 22/22 A2992 RMK AO2 T02220222
KCXO 250610Z AUTO 00000KT 10SM OVC009 22/22 A2991 RMK AO2 T02170217
KCXO 250553Z AUTO 00000KT 10SM OVC010 21/21 A2991 RMK AO2 SLP126 T02110211 10256 20206 403060167 51010
KCXO 250532Z AUTO 00000KT 3SM BR BKN011 BKN020 21/21 A2991 RMK AO2 T02060206
KCXO 250523Z AUTO 00000KT 1SM BR SCT011 BKN020 21/21 A2991 RMK AO2 T02060206
KCXO 250520Z AUTO 00000KT 3/4SM BR FEW011 SCT020 21/21 A2991 RMK AO2 T02060206
KCXO 250513Z AUTO 00000KT 3/4SM BR VV011 21/21 A2990 RMK AO2 T02060206
KCXO 250506Z AUTO 00000KT 1 3/4SM BR CLR 21/21 A2990 RMK AO2 T02060206
KCXO 250453Z AUTO 00000KT 9SM FEW013 21/21 A2991 RMK AO2 SLP124 T02110211
KCXO 250353Z AUTO 00000KT 10SM CLR 22/22 A2990 RMK AO2 SLP121 T02220217
KCXO 250253Z AUTO 15005KT 10SM FEW036 FEW050 23/22 A2988 RMK AO2 SLP116 T02280222 51018
KCXO 250153Z AUTO 13003KT 10SM BKN045 24/22 A2987 RMK AO2 SLP110 T02390222
KCXO 250053Z 13005KT 10SM CLR 24/23 A2985 RMK AO2 SLP104 T02440228
KCXO 242353Z 12005KT 10SM CLR 26/22 A2983 RMK AO2 SLP097 T02560222 10306 20256 53003
KCXO 242253Z 13005KT 10SM CLR 28/22 A2982 RMK AO2 SLP093 T02830222
KCXO 242153Z 18007KT 10SM CLR 29/22 A2982 RMK AO2 SLP095 T02940217
KCXO 242053Z 10006KT 10SM SCT035 29/22 A2982 RMK AO2 SLP094 T02940222 56022
KCXO 241953Z 15004KT 10SM FEW040 SCT060 29/22 A2983 RMK AO2 SLP099 T02940217
KCXO 241853Z 18007KT 10SM FEW034 29/22 A2985 RMK AO2 SLP106 T02940222
KCXO 241753Z 13008KT 10SM SCT028 BKN033 28/22 A2988 RMK AO2 SLP116 T02830222 10283 20194 58009
KCXO 241717Z 17010G15KT 10SM SCT023 SCT029 28/22 A2990 RMK AO2 T02830222
KCXO 241708Z 16009KT 10SM BKN023 28/22 A2990 RMK AO2 T02780222
KCXO 241653Z 17007KT 10SM FEW019 27/22 A2991 RMK AO2 SLP124 T02720222
KCXO 241553Z 15005KT 10SM FEW013 SCT041 BKN049 26/22 A2992 RMK AO2 SLP129 T02560222
KCXO 241453Z 16008KT 10SM FEW008 FEW042 24/22 A2991 RMK AO2 SLP125 T02390222 53013
KCXO 241353Z 14003KT 10SM FEW041 SCT055 22/21 A2989 RMK AO2 SLP118 T02170211
KCXO 241253Z 11005KT 10SM FEW014 BKN055 20/20 A2987 RMK AO2 SLP112 T02000200
KCXO 241153Z 12006KT 10SM OVC049 19/19 A2987 RMK AO2 SLP112 70024 T01940194 10194 20167 55003